sensor_id;sensor_type;location;lat;lon;timestamp;temperature;humidity
69626;DHT22;56847;51.984;5.088;2023-02-15T00:01:47;7.20;77.50
69626;DHT22;56847;51.984;5.088;2023-02-15T00:04:16;7.20;77.50
69626;DHT22;56847;51.984;5.088;2023-02-15T00:06:44;7.20;77.40
69626;DHT22;56847;51.984;5.088;2023-02-15T00:09:11;7.20;77.30
69626;DHT22;56847;51.984;5.088;2023-02-15T00:11:39;7.10;77.30
69626;DHT22;56847;51.984;5.088;2023-02-15T00:14:20;7.10;77.30
69626;DHT22;56847;51.984;5.088;2023-02-15T00:16:48;7.10;77.30
69626;DHT22;56847;51.984;5.088;2023-02-15T00:19:17;7.10;77.40
69626;DHT22;56847;51.984;5.088;2023-02-15T00:21:45;7.00;77.40
69626;DHT22;56847;51.984;5.088;2023-02-15T00:24:14;7.10;77.50
69626;DHT22;56847;51.984;5.088;2023-02-15T00:26:41;7.00;77.50
69626;DHT22;56847;51.984;5.088;2023-02-15T00:29:10;7.00;77.50
69626;DHT22;56847;51.984;5.088;2023-02-15T00:31:38;7.00;77.60
69626;DHT22;56847;51.984;5.088;2023-02-15T00:34:09;7.00;77.60
69626;DHT22;56847;51.984;5.088;2023-02-15T00:36:37;6.90;77.60
69626;DHT22;56847;51.984;5.088;2023-02-15T00:39:04;6.90;77.60
69626;DHT22;56847;51.984;5.088;2023-02-15T00:41:32;6.90;77.70
69626;DHT22;56847;51.984;5.088;2023-02-15T00:43:59;6.90;77.80
69626;DHT22;56847;51.984;5.088;2023-02-15T00:46:29;6.90;77.80
69626;DHT22;56847;51.984;5.088;2023-02-15T00:48:56;6.90;77.80
69626;DHT22;56847;51.984;5.088;2023-02-15T00:51:23;6.90;77.90
69626;DHT22;56847;51.984;5.088;2023-02-15T00:53:50;6.80;77.80
69626;DHT22;56847;51.984;5.088;2023-02-15T00:56:17;6.80;77.90
69626;DHT22;56847;51.984;5.088;2023-02-15T00:58:45;6.80;77.80
69626;DHT22;56847;51.984;5.088;2023-02-15T01:01:17;6.80;77.90
69626;DHT22;56847;51.984;5.088;2023-02-15T01:03:45;6.80;78.00
69626;DHT22;56847;51.984;5.088;2023-02-15T01:06:14;6.80;78.00
69626;DHT22;56847;51.984;5.088;2023-02-15T01:08:43;6.80;78.00
69626;DHT22;56847;51.984;5.088;2023-02-15T01:11:18;6.80;77.90
69626;DHT22;56847;51.984;5.088;2023-02-15T01:13:55;6.80;78.00
69626;DHT22;56847;51.984;5.088;2023-02-15T01:16:24;6.70;77.90
69626;DHT22;56847;51.984;5.088;2023-02-15T01:18:52;6.70;77.90
69626;DHT22;56847;51.984;5.088;2023-02-15T01:21:20;6.70;77.90
69626;DHT22;56847;51.984;5.088;2023-02-15T01:23:48;6.60;77.90
69626;DHT22;56847;51.984;5.088;2023-02-15T01:26:16;6.60;77.90
69626;DHT22;56847;51.984;5.088;2023-02-15T01:28:43;6.60;78.00
69626;DHT22;56847;51.984;5.088;2023-02-15T01:31:15;6.60;78.00
69626;DHT22;56847;51.984;5.088;2023-02-15T01:33:45;6.50;78.00
69626;DHT22;56847;51.984;5.088;2023-02-15T01:36:13;6.50;78.10
69626;DHT22;56847;51.984;5.088;2023-02-15T01:38:40;6.50;78.10
69626;DHT22;56847;51.984;5.088;2023-02-15T01:41:08;6.50;78.20
69626;DHT22;56847;51.984;5.088;2023-02-15T01:43:58;6.50;78.20
69626;DHT22;56847;51.984;5.088;2023-02-15T01:46:41;6.50;78.20
69626;DHT22;56847;51.984;5.088;2023-02-15T01:49:16;6.50;78.20
69626;DHT22;56847;51.984;5.088;2023-02-15T01:51:45;6.50;78.20
69626;DHT22;56847;51.984;5.088;2023-02-15T01:54:27;6.50;78.30
69626;DHT22;56847;51.984;5.088;2023-02-15T01:57:08;6.50;78.30
69626;DHT22;56847;51.984;5.088;2023-02-15T01:59:37;6.40;78.40
69626;DHT22;56847;51.984;5.088;2023-02-15T02:02:07;6.40;78.50
69626;DHT22;56847;51.984;5.088;2023-02-15T02:04:43;6.40;78.50
69626;DHT22;56847;51.984;5.088;2023-02-15T02:07:13;6.40;78.50
69626;DHT22;56847;51.984;5.088;2023-02-15T02:09:41;6.40;78.50
69626;DHT22;56847;51.984;5.088;2023-02-15T02:12:09;6.40;78.40
69626;DHT22;56847;51.984;5.088;2023-02-15T02:14:39;6.30;78.50
69626;DHT22;56847;51.984;5.088;2023-02-15T02:39:40;6.20;78.60
69626;DHT22;56847;51.984;5.088;2023-02-15T02:42:26;6.20;78.50
69626;DHT22;56847;51.984;5.088;2023-02-15T02:45:21;6.20;78.50
69626;DHT22;56847;51.984;5.088;2023-02-15T02:47:59;6.10;78.60
69626;DHT22;56847;51.984;5.088;2023-02-15T02:50:29;6.10;78.70
69626;DHT22;56847;51.984;5.088;2023-02-15T02:52:58;6.10;78.80
69626;DHT22;56847;51.984;5.088;2023-02-15T02:55:53;6.10;78.90
69626;DHT22;56847;51.984;5.088;2023-02-15T02:58:31;6.10;78.90
69626;DHT22;56847;51.984;5.088;2023-02-15T03:01:16;6.10;78.90
69626;DHT22;56847;51.984;5.088;2023-02-15T03:03:51;6.10;78.90
69626;DHT22;56847;51.984;5.088;2023-02-15T03:06:25;6.10;78.90
69626;DHT22;56847;51.984;5.088;2023-02-15T03:09:03;6.10;79.00
69626;DHT22;56847;51.984;5.088;2023-02-15T03:11:33;6.10;79.00
69626;DHT22;56847;51.984;5.088;2023-02-15T03:14:00;6.10;78.90
69626;DHT22;56847;51.984;5.088;2023-02-15T03:16:28;6.10;78.90
69626;DHT22;56847;51.984;5.088;2023-02-15T03:19:10;6.00;78.90
69626;DHT22;56847;51.984;5.088;2023-02-15T03:21:47;6.00;78.90
69626;DHT22;56847;51.984;5.088;2023-02-15T03:24:21;6.10;79.00
69626;DHT22;56847;51.984;5.088;2023-02-15T03:26:50;6.00;79.00
69626;DHT22;56847;51.984;5.088;2023-02-15T03:29:24;6.00;78.90
69626;DHT22;56847;51.984;5.088;2023-02-15T03:31:56;6.00;79.00
69626;DHT22;56847;51.984;5.088;2023-02-15T03:34:25;6.00;79.20
69626;DHT22;56847;51.984;5.088;2023-02-15T03:37:09;6.00;79.30
69626;DHT22;56847;51.984;5.088;2023-02-15T03:39:47;6.00;79.30
69626;DHT22;56847;51.984;5.088;2023-02-15T03:42:22;6.00;79.30
69626;DHT22;56847;51.984;5.088;2023-02-15T03:47:21;6.00;79.30
69626;DHT22;56847;51.984;5.088;2023-02-15T03:52:30;6.00;79.20
69626;DHT22;56847;51.984;5.088;2023-02-15T03:54:58;6.00;79.20
69626;DHT22;56847;51.984;5.088;2023-02-15T03:57:28;5.90;79.30
69626;DHT22;56847;51.984;5.088;2023-02-15T04:00:17;5.90;79.30
69626;DHT22;56847;51.984;5.088;2023-02-15T04:05:43;5.90;79.30
69626;DHT22;56847;51.984;5.088;2023-02-15T04:08:11;5.90;79.20
69626;DHT22;56847;51.984;5.088;2023-02-15T04:10:38;5.90;79.20
69626;DHT22;56847;51.984;5.088;2023-02-15T04:13:30;5.90;79.20
69626;DHT22;56847;51.984;5.088;2023-02-15T04:15:58;5.80;79.20
69626;DHT22;56847;51.984;5.088;2023-02-15T04:21:20;5.80;79.40
69626;DHT22;56847;51.984;5.088;2023-02-15T04:24:07;5.80;79.40
69626;DHT22;56847;51.984;5.088;2023-02-15T04:26:53;5.80;79.40
69626;DHT22;56847;51.984;5.088;2023-02-15T04:29:21;5.80;79.40
69626;DHT22;56847;51.984;5.088;2023-02-15T04:31:49;5.80;79.30
69626;DHT22;56847;51.984;5.088;2023-02-15T04:34:16;5.80;79.30
69626;DHT22;56847;51.984;5.088;2023-02-15T04:36:43;5.80;79.30
69626;DHT22;56847;51.984;5.088;2023-02-15T04:39:15;5.80;79.40
69626;DHT22;56847;51.984;5.088;2023-02-15T04:41:42;5.80;79.30
69626;DHT22;56847;51.984;5.088;2023-02-15T04:44:09;5.80;79.40
69626;DHT22;56847;51.984;5.088;2023-02-15T04:46:36;5.70;79.40
69626;DHT22;56847;51.984;5.088;2023-02-15T04:49:03;5.70;79.40
69626;DHT22;56847;51.984;5.088;2023-02-15T04:51:30;5.70;79.40
69626;DHT22;56847;51.984;5.088;2023-02-15T04:53:57;5.70;79.50
69626;DHT22;56847;51.984;5.088;2023-02-15T04:56:24;5.70;79.40
69626;DHT22;56847;51.984;5.088;2023-02-15T04:58:51;5.70;79.50
69626;DHT22;56847;51.984;5.088;2023-02-15T05:01:18;5.70;79.50
69626;DHT22;56847;51.984;5.088;2023-02-15T05:03:45;5.70;79.50
69626;DHT22;56847;51.984;5.088;2023-02-15T05:06:12;5.60;79.50
69626;DHT22;56847;51.984;5.088;2023-02-15T05:08:39;5.60;79.50
69626;DHT22;56847;51.984;5.088;2023-02-15T05:11:06;5.60;79.50
69626;DHT22;56847;51.984;5.088;2023-02-15T05:13:33;5.60;79.40
69626;DHT22;56847;51.984;5.088;2023-02-15T05:16:00;5.60;79.50
69626;DHT22;56847;51.984;5.088;2023-02-15T05:18:27;5.60;79.50
69626;DHT22;56847;51.984;5.088;2023-02-15T05:20:54;5.60;79.40
69626;DHT22;56847;51.984;5.088;2023-02-15T05:23:21;5.60;79.40
69626;DHT22;56847;51.984;5.088;2023-02-15T05:25:49;5.60;79.40
69626;DHT22;56847;51.984;5.088;2023-02-15T05:28:35;5.60;79.40
69626;DHT22;56847;51.984;5.088;2023-02-15T05:33:31;5.50;79.60
69626;DHT22;56847;51.984;5.088;2023-02-15T05:35:58;5.50;79.60
69626;DHT22;56847;51.984;5.088;2023-02-15T05:38:28;5.50;79.70
69626;DHT22;56847;51.984;5.088;2023-02-15T05:40:55;5.50;79.70
69626;DHT22;56847;51.984;5.088;2023-02-15T05:43:22;5.50;79.60
69626;DHT22;56847;51.984;5.088;2023-02-15T05:45:52;5.50;79.60
69626;DHT22;56847;51.984;5.088;2023-02-15T05:48:25;5.50;79.50
69626;DHT22;56847;51.984;5.088;2023-02-15T05:51:03;5.50;79.50
69626;DHT22;56847;51.984;5.088;2023-02-15T05:53:32;5.40;79.50
69626;DHT22;56847;51.984;5.088;2023-02-15T05:56:00;5.40;79.60
69626;DHT22;56847;51.984;5.088;2023-02-15T05:58:34;5.40;79.50
69626;DHT22;56847;51.984;5.088;2023-02-15T06:01:21;5.40;79.70
69626;DHT22;56847;51.984;5.088;2023-02-15T06:03:49;5.40;79.70
69626;DHT22;56847;51.984;5.088;2023-02-15T06:06:16;5.40;79.80
69626;DHT22;56847;51.984;5.088;2023-02-15T06:08:43;5.30;79.70
69626;DHT22;56847;51.984;5.088;2023-02-15T06:11:12;5.30;79.70
69626;DHT22;56847;51.984;5.088;2023-02-15T06:13:38;5.30;79.70
69626;DHT22;56847;51.984;5.088;2023-02-15T06:16:06;5.30;79.80
69626;DHT22;56847;51.984;5.088;2023-02-15T06:18:33;5.30;79.80
69626;DHT22;56847;51.984;5.088;2023-02-15T06:21:01;5.30;79.70
69626;DHT22;56847;51.984;5.088;2023-02-15T06:23:28;5.30;79.80
69626;DHT22;56847;51.984;5.088;2023-02-15T06:25:55;5.30;79.80
69626;DHT22;56847;51.984;5.088;2023-02-15T06:28:22;5.30;79.80
69626;DHT22;56847;51.984;5.088;2023-02-15T06:31:14;5.30;79.90
69626;DHT22;56847;51.984;5.088;2023-02-15T06:33:42;5.20;79.90
69626;DHT22;56847;51.984;5.088;2023-02-15T06:36:09;5.20;79.90
69626;DHT22;56847;51.984;5.088;2023-02-15T06:38:36;5.20;80.00
69626;DHT22;56847;51.984;5.088;2023-02-15T06:41:03;5.20;80.10
69626;DHT22;56847;51.984;5.088;2023-02-15T06:43:29;5.20;80.00
69626;DHT22;56847;51.984;5.088;2023-02-15T06:45:56;5.20;80.00
69626;DHT22;56847;51.984;5.088;2023-02-15T06:48:23;5.20;80.00
69626;DHT22;56847;51.984;5.088;2023-02-15T06:50:50;5.20;80.00
69626;DHT22;56847;51.984;5.088;2023-02-15T06:53:17;5.20;80.00
69626;DHT22;56847;51.984;5.088;2023-02-15T06:55:44;5.20;80.00
69626;DHT22;56847;51.984;5.088;2023-02-15T06:58:11;5.20;80.10
69626;DHT22;56847;51.984;5.088;2023-02-15T07:00:38;5.20;80.00
69626;DHT22;56847;51.984;5.088;2023-02-15T07:03:05;5.20;80.00
69626;DHT22;56847;51.984;5.088;2023-02-15T07:05:33;5.20;80.00
69626;DHT22;56847;51.984;5.088;2023-02-15T07:08:01;5.20;80.00
69626;DHT22;56847;51.984;5.088;2023-02-15T07:10:28;5.20;80.00
69626;DHT22;56847;51.984;5.088;2023-02-15T07:12:55;5.20;80.00
69626;DHT22;56847;51.984;5.088;2023-02-15T07:15:23;5.20;79.90
69626;DHT22;56847;51.984;5.088;2023-02-15T07:17:50;5.20;79.90
69626;DHT22;56847;51.984;5.088;2023-02-15T07:20:19;5.30;80.00
69626;DHT22;56847;51.984;5.088;2023-02-15T07:22:47;5.30;80.00
69626;DHT22;56847;51.984;5.088;2023-02-15T07:25:14;5.30;80.00
69626;DHT22;56847;51.984;5.088;2023-02-15T07:31:25;5.30;80.20
69626;DHT22;56847;51.984;5.088;2023-02-15T07:33:52;5.40;80.30
69626;DHT22;56847;51.984;5.088;2023-02-15T07:36:19;5.40;80.30
69626;DHT22;56847;51.984;5.088;2023-02-15T07:38:46;5.40;80.40
69626;DHT22;56847;51.984;5.088;2023-02-15T07:41:15;5.50;80.40
69626;DHT22;56847;51.984;5.088;2023-02-15T07:43:44;5.50;80.60
69626;DHT22;56847;51.984;5.088;2023-02-15T07:46:13;5.50;80.60
69626;DHT22;56847;51.984;5.088;2023-02-15T07:48:41;5.60;80.70
69626;DHT22;56847;51.984;5.088;2023-02-15T07:51:10;5.60;80.80
69626;DHT22;56847;51.984;5.088;2023-02-15T07:53:38;5.70;80.80
69626;DHT22;56847;51.984;5.088;2023-02-15T07:56:13;5.70;80.90
69626;DHT22;56847;51.984;5.088;2023-02-15T07:58:40;5.80;80.90
69626;DHT22;56847;51.984;5.088;2023-02-15T08:01:25;5.80;81.00
69626;DHT22;56847;51.984;5.088;2023-02-15T08:03:57;5.90;80.90
69626;DHT22;56847;51.984;5.088;2023-02-15T08:06:26;6.00;81.00
69626;DHT22;56847;51.984;5.088;2023-02-15T08:08:54;6.10;80.90
69626;DHT22;56847;51.984;5.088;2023-02-15T08:11:26;6.10;81.00
69626;DHT22;56847;51.984;5.088;2023-02-15T08:16:44;6.20;81.10
69626;DHT22;56847;51.984;5.088;2023-02-15T08:21:49;6.40;81.00
69626;DHT22;56847;51.984;5.088;2023-02-15T08:24:19;6.40;81.00
69626;DHT22;56847;51.984;5.088;2023-02-15T08:26:47;6.50;81.10
69626;DHT22;56847;51.984;5.088;2023-02-15T08:29:16;6.60;81.20
69626;DHT22;56847;51.984;5.088;2023-02-15T08:31:45;6.60;81.30
69626;DHT22;56847;51.984;5.088;2023-02-15T08:34:15;6.70;81.10
69626;DHT22;56847;51.984;5.088;2023-02-15T08:36:43;6.80;81.10
69626;DHT22;56847;51.984;5.088;2023-02-15T08:39:12;6.80;81.20
69626;DHT22;56847;51.984;5.088;2023-02-15T08:41:42;6.90;81.20
69626;DHT22;56847;51.984;5.088;2023-02-15T08:44:10;7.00;81.20
69626;DHT22;56847;51.984;5.088;2023-02-15T08:46:40;7.10;81.10
69626;DHT22;56847;51.984;5.088;2023-02-15T08:49:14;7.10;80.80
69626;DHT22;56847;51.984;5.088;2023-02-15T08:51:42;7.20;81.00
69626;DHT22;56847;51.984;5.088;2023-02-15T08:54:11;7.20;80.70
69626;DHT22;56847;51.984;5.088;2023-02-15T08:56:43;7.20;80.70
69626;DHT22;56847;51.984;5.088;2023-02-15T08:59:28;7.30;80.70
69626;DHT22;56847;51.984;5.088;2023-02-15T09:01:55;7.30;80.60
69626;DHT22;56847;51.984;5.088;2023-02-15T09:04:22;7.40;80.70
69626;DHT22;56847;51.984;5.088;2023-02-15T09:06:50;7.50;80.60
69626;DHT22;56847;51.984;5.088;2023-02-15T09:09:18;7.50;80.50
69626;DHT22;56847;51.984;5.088;2023-02-15T09:11:47;7.60;80.60
69626;DHT22;56847;51.984;5.088;2023-02-15T09:14:18;7.70;80.70
69626;DHT22;56847;51.984;5.088;2023-02-15T09:16:47;7.80;80.80
69626;DHT22;56847;51.984;5.088;2023-02-15T09:19:17;7.90;80.80
69626;DHT22;56847;51.984;5.088;2023-02-15T09:21:46;8.00;80.70
69626;DHT22;56847;51.984;5.088;2023-02-15T09:24:15;8.10;80.60
69626;DHT22;56847;51.984;5.088;2023-02-15T09:26:45;8.20;80.40
69626;DHT22;56847;51.984;5.088;2023-02-15T09:29:13;8.20;80.10
69626;DHT22;56847;51.984;5.088;2023-02-15T09:31:43;8.30;80.30
69626;DHT22;56847;51.984;5.088;2023-02-15T09:34:17;8.40;80.10
69626;DHT22;56847;51.984;5.088;2023-02-15T09:36:54;8.50;79.70
69626;DHT22;56847;51.984;5.088;2023-02-15T09:39:23;8.60;80.00
69626;DHT22;56847;51.984;5.088;2023-02-15T09:42:02;8.70;79.60
69626;DHT22;56847;51.984;5.088;2023-02-15T10:04:33;9.40;78.80
69626;DHT22;56847;51.984;5.088;2023-02-15T10:28:51;10.50;77.70
69626;DHT22;56847;51.984;5.088;2023-02-15T10:37:00;10.80;76.70
69626;DHT22;56847;51.984;5.088;2023-02-15T10:42:25;11.10;76.40
69626;DHT22;56847;51.984;5.088;2023-02-15T10:56:12;11.30;74.20
69626;DHT22;56847;51.984;5.088;2023-02-15T11:04:50;11.50;74.40
69626;DHT22;56847;51.984;5.088;2023-02-15T11:07:41;11.60;74.50
69626;DHT22;56847;51.984;5.088;2023-02-15T11:11:08;11.70;74.30
69626;DHT22;56847;51.984;5.088;2023-02-15T11:13:18;11.80;73.70
69626;DHT22;56847;51.984;5.088;2023-02-15T11:16:02;11.90;73.50
69626;DHT22;56847;51.984;5.088;2023-02-15T11:18:32;12.00;73.30
69626;DHT22;56847;51.984;5.088;2023-02-15T11:23:40;12.10;72.90
69626;DHT22;56847;51.984;5.088;2023-02-15T11:26:49;12.30;72.60
69626;DHT22;56847;51.984;5.088;2023-02-15T11:31:43;12.60;72.00
69626;DHT22;56847;51.984;5.088;2023-02-15T11:36:48;12.80;71.50
69626;DHT22;56847;51.984;5.088;2023-02-15T11:39:18;12.80;71.00
69626;DHT22;56847;51.984;5.088;2023-02-15T11:41:52;12.90;70.90
69626;DHT22;56847;51.984;5.088;2023-02-15T11:44:25;13.00;70.70
69626;DHT22;56847;51.984;5.088;2023-02-15T11:46:52;13.10;70.10
69626;DHT22;56847;51.984;5.088;2023-02-15T11:49:27;13.20;69.60
69626;DHT22;56847;51.984;5.088;2023-02-15T11:51:55;13.20;69.90
69626;DHT22;56847;51.984;5.088;2023-02-15T11:54:28;13.30;69.90
69626;DHT22;56847;51.984;5.088;2023-02-15T11:57:27;13.40;69.90
69626;DHT22;56847;51.984;5.088;2023-02-15T12:00:04;13.50;69.70
69626;DHT22;56847;51.984;5.088;2023-02-15T12:02:35;13.60;69.40
69626;DHT22;56847;51.984;5.088;2023-02-15T12:05:09;13.60;69.00
69626;DHT22;56847;51.984;5.088;2023-02-15T12:07:46;13.60;68.70
69626;DHT22;56847;51.984;5.088;2023-02-15T12:13:20;13.70;68.30
69626;DHT22;56847;51.984;5.088;2023-02-15T12:15:53;13.80;66.80
69626;DHT22;56847;51.984;5.088;2023-02-15T12:18:32;13.80;67.10
69626;DHT22;56847;51.984;5.088;2023-02-15T12:21:05;13.90;66.60
69626;DHT22;56847;51.984;5.088;2023-02-15T12:23:47;14.00;66.40
69626;DHT22;56847;51.984;5.088;2023-02-15T12:26:32;14.10;66.40
69626;DHT22;56847;51.984;5.088;2023-02-15T12:29:21;14.10;66.10
69626;DHT22;56847;51.984;5.088;2023-02-15T12:31:51;14.20;65.90
69626;DHT22;56847;51.984;5.088;2023-02-15T12:34:22;14.20;65.60
69626;DHT22;56847;51.984;5.088;2023-02-15T12:36:55;14.20;65.10
69626;DHT22;56847;51.984;5.088;2023-02-15T12:39:29;14.30;64.80
69626;DHT22;56847;51.984;5.088;2023-02-15T12:42:03;14.20;65.20
69626;DHT22;56847;51.984;5.088;2023-02-15T12:44:31;14.10;64.90
69626;DHT22;56847;51.984;5.088;2023-02-15T12:49:32;13.90;65.20
69626;DHT22;56847;51.984;5.088;2023-02-15T12:52:10;13.80;65.30
69626;DHT22;56847;51.984;5.088;2023-02-15T12:54:50;13.70;65.40
69626;DHT22;56847;51.984;5.088;2023-02-15T13:00:01;13.50;65.60
69626;DHT22;56847;51.984;5.088;2023-02-15T13:07:50;13.60;66.40
69626;DHT22;56847;51.984;5.088;2023-02-15T13:10:23;13.70;66.20
69626;DHT22;56847;51.984;5.088;2023-02-15T13:12:52;13.80;66.30
69626;DHT22;56847;51.984;5.088;2023-02-15T13:18:02;14.10;66.30
69626;DHT22;56847;51.984;5.088;2023-02-15T13:20:29;14.20;65.70
69626;DHT22;56847;51.984;5.088;2023-02-15T13:23:01;14.20;65.70
69626;DHT22;56847;51.984;5.088;2023-02-15T13:25:39;14.20;64.10
69626;DHT22;56847;51.984;5.088;2023-02-15T13:28:14;14.20;64.40
69626;DHT22;56847;51.984;5.088;2023-02-15T13:30:47;14.30;64.70
69626;DHT22;56847;51.984;5.088;2023-02-15T13:33:41;14.30;64.60
69626;DHT22;56847;51.984;5.088;2023-02-15T13:36:14;14.30;64.20
69626;DHT22;56847;51.984;5.088;2023-02-15T13:39:16;14.40;64.10
69626;DHT22;56847;51.984;5.088;2023-02-15T13:44:27;14.50;64.60
69626;DHT22;56847;51.984;5.088;2023-02-15T13:47:21;14.50;64.70
69626;DHT22;56847;51.984;5.088;2023-02-15T13:50:38;14.60;64.60
69626;DHT22;56847;51.984;5.088;2023-02-15T13:59:17;14.70;64.30
69626;DHT22;56847;51.984;5.088;2023-02-15T14:21:48;14.60;61.90
69626;DHT22;56847;51.984;5.088;2023-02-15T14:24:40;14.60;62.40
69626;DHT22;56847;51.984;5.088;2023-02-15T14:30:02;14.50;62.20
69626;DHT22;56847;51.984;5.088;2023-02-15T14:32:38;14.50;62.00
69626;DHT22;56847;51.984;5.088;2023-02-15T14:35:29;14.50;61.70
69626;DHT22;56847;51.984;5.088;2023-02-15T14:41:18;14.50;61.40
69626;DHT22;56847;51.984;5.088;2023-02-15T14:49:22;14.30;61.40
69626;DHT22;56847;51.984;5.088;2023-02-15T14:56:45;14.20;61.20
69626;DHT22;56847;51.984;5.088;2023-02-15T14:59:22;14.10;61.00
69626;DHT22;56847;51.984;5.088;2023-02-15T15:04:31;14.00;61.40
69626;DHT22;56847;51.984;5.088;2023-02-15T15:09:40;14.00;61.70
69626;DHT22;56847;51.984;5.088;2023-02-15T15:14:54;13.90;62.10
69626;DHT22;56847;51.984;5.088;2023-02-15T15:22:35;13.90;62.60
69626;DHT22;56847;51.984;5.088;2023-02-15T15:27:52;13.80;62.80
69626;DHT22;56847;51.984;5.088;2023-02-15T15:33:08;13.80;63.00
69626;DHT22;56847;51.984;5.088;2023-02-15T15:41:40;13.70;63.40
69626;DHT22;56847;51.984;5.088;2023-02-15T15:50:15;13.50;63.20
69626;DHT22;56847;51.984;5.088;2023-02-15T15:52:50;13.50;63.50
69626;DHT22;56847;51.984;5.088;2023-02-15T15:55:21;13.50;63.60
69626;DHT22;56847;51.984;5.088;2023-02-15T15:57:53;13.40;63.70
69626;DHT22;56847;51.984;5.088;2023-02-15T16:03:04;13.30;64.00
69626;DHT22;56847;51.984;5.088;2023-02-15T16:05:39;13.30;63.80
69626;DHT22;56847;51.984;5.088;2023-02-15T16:08:06;13.30;63.90
69626;DHT22;56847;51.984;5.088;2023-02-15T16:10:35;13.20;64.20
69626;DHT22;56847;51.984;5.088;2023-02-15T16:13:05;13.10;64.30
69626;DHT22;56847;51.984;5.088;2023-02-15T16:15:43;13.10;64.20
69626;DHT22;56847;51.984;5.088;2023-02-15T16:18:22;13.10;64.50
69626;DHT22;56847;51.984;5.088;2023-02-15T16:20:55;13.00;64.60
69626;DHT22;56847;51.984;5.088;2023-02-15T16:29:00;12.90;64.90
69626;DHT22;56847;51.984;5.088;2023-02-15T16:31:28;12.80;65.00
69626;DHT22;56847;51.984;5.088;2023-02-15T16:33:55;12.70;65.00
69626;DHT22;56847;51.984;5.088;2023-02-15T16:36:26;12.70;65.20
69626;DHT22;56847;51.984;5.088;2023-02-15T16:41:27;12.50;65.30
69626;DHT22;56847;51.984;5.088;2023-02-15T16:44:02;12.40;65.50
69626;DHT22;56847;51.984;5.088;2023-02-15T16:46:33;12.30;65.80
69626;DHT22;56847;51.984;5.088;2023-02-15T16:49:15;12.20;65.90
69626;DHT22;56847;51.984;5.088;2023-02-15T16:51:43;12.10;66.00
69626;DHT22;56847;51.984;5.088;2023-02-15T16:54:19;12.00;66.20
69626;DHT22;56847;51.984;5.088;2023-02-15T16:56:47;11.90;66.50
69626;DHT22;56847;51.984;5.088;2023-02-15T16:59:35;11.90;66.70
69626;DHT22;56847;51.984;5.088;2023-02-15T17:02:13;11.80;67.00
69626;DHT22;56847;51.984;5.088;2023-02-15T17:07:40;11.70;67.50
69626;DHT22;56847;51.984;5.088;2023-02-15T17:10:33;11.60;67.60
69626;DHT22;56847;51.984;5.088;2023-02-15T17:13:18;11.60;67.90
69626;DHT22;56847;51.984;5.088;2023-02-15T17:16:26;11.50;68.00
69626;DHT22;56847;51.984;5.088;2023-02-15T17:18:54;11.40;68.20
69626;DHT22;56847;51.984;5.088;2023-02-15T17:21:30;11.40;68.30
69626;DHT22;56847;51.984;5.088;2023-02-15T17:24:02;11.30;68.40
69626;DHT22;56847;51.984;5.088;2023-02-15T17:26:34;11.30;68.60
69626;DHT22;56847;51.984;5.088;2023-02-15T17:29:26;11.30;68.70
69626;DHT22;56847;51.984;5.088;2023-02-15T17:31:57;11.20;68.90
69626;DHT22;56847;51.984;5.088;2023-02-15T17:34:41;11.20;68.80
69626;DHT22;56847;51.984;5.088;2023-02-15T17:40:21;11.20;68.80
69626;DHT22;56847;51.984;5.088;2023-02-15T17:42:48;11.20;68.90
69626;DHT22;56847;51.984;5.088;2023-02-15T17:45:16;11.10;68.90
69626;DHT22;56847;51.984;5.088;2023-02-15T17:47:43;11.10;68.90
69626;DHT22;56847;51.984;5.088;2023-02-15T17:50:19;11.10;69.00
69626;DHT22;56847;51.984;5.088;2023-02-15T17:52:47;11.10;69.10
69626;DHT22;56847;51.984;5.088;2023-02-15T17:55:17;11.10;69.20
69626;DHT22;56847;51.984;5.088;2023-02-15T17:58:07;11.00;69.30
69626;DHT22;56847;51.984;5.088;2023-02-15T18:00:39;11.00;69.30
69626;DHT22;56847;51.984;5.088;2023-02-15T18:03:39;11.00;69.40
69626;DHT22;56847;51.984;5.088;2023-02-15T18:06:27;11.00;69.40
69626;DHT22;56847;51.984;5.088;2023-02-15T18:09:15;10.90;69.40
69626;DHT22;56847;51.984;5.088;2023-02-15T18:12:01;10.90;69.50
69626;DHT22;56847;51.984;5.088;2023-02-15T18:14:29;10.80;69.60
69626;DHT22;56847;51.984;5.088;2023-02-15T18:16:57;10.80;69.60
69626;DHT22;56847;51.984;5.088;2023-02-15T18:19:25;10.80;69.60
69626;DHT22;56847;51.984;5.088;2023-02-15T18:21:53;10.80;69.70
69626;DHT22;56847;51.984;5.088;2023-02-15T18:24:23;10.70;69.70
69626;DHT22;56847;51.984;5.088;2023-02-15T18:26:53;10.70;69.70
69626;DHT22;56847;51.984;5.088;2023-02-15T18:29:23;10.70;69.80
69626;DHT22;56847;51.984;5.088;2023-02-15T18:31:53;10.70;69.80
69626;DHT22;56847;51.984;5.088;2023-02-15T18:34:32;10.60;69.80
69626;DHT22;56847;51.984;5.088;2023-02-15T18:37:02;10.60;69.90
69626;DHT22;56847;51.984;5.088;2023-02-15T18:39:46;10.60;70.00
69626;DHT22;56847;51.984;5.088;2023-02-15T18:42:22;10.60;70.00
69626;DHT22;56847;51.984;5.088;2023-02-15T18:44:56;10.50;70.20
69626;DHT22;56847;51.984;5.088;2023-02-15T18:47:24;10.50;70.30
69626;DHT22;56847;51.984;5.088;2023-02-15T18:49:52;10.60;70.30
69626;DHT22;56847;51.984;5.088;2023-02-15T18:52:22;10.60;70.30
69626;DHT22;56847;51.984;5.088;2023-02-15T18:54:53;10.60;70.30
69626;DHT22;56847;51.984;5.088;2023-02-15T18:57:24;10.60;70.30
69626;DHT22;56847;51.984;5.088;2023-02-15T18:59:53;10.50;70.30
69626;DHT22;56847;51.984;5.088;2023-02-15T19:02:20;10.50;70.30
69626;DHT22;56847;51.984;5.088;2023-02-15T19:04:47;10.50;70.30
69626;DHT22;56847;51.984;5.088;2023-02-15T19:07:25;10.50;70.40
69626;DHT22;56847;51.984;5.088;2023-02-15T19:09:55;10.50;70.40
69626;DHT22;56847;51.984;5.088;2023-02-15T19:12:26;10.50;70.40
69626;DHT22;56847;51.984;5.088;2023-02-15T19:14:54;10.50;70.30
69626;DHT22;56847;51.984;5.088;2023-02-15T19:17:23;10.50;70.30
69626;DHT22;56847;51.984;5.088;2023-02-15T19:19:51;10.50;70.20
69626;DHT22;56847;51.984;5.088;2023-02-15T19:22:20;10.40;70.30
69626;DHT22;56847;51.984;5.088;2023-02-15T19:24:50;10.40;70.20
69626;DHT22;56847;51.984;5.088;2023-02-15T19:27:25;10.30;70.30
69626;DHT22;56847;51.984;5.088;2023-02-15T19:29:53;10.30;70.30
69626;DHT22;56847;51.984;5.088;2023-02-15T19:32:21;10.20;70.30
69626;DHT22;56847;51.984;5.088;2023-02-15T19:34:48;10.20;70.40
69626;DHT22;56847;51.984;5.088;2023-02-15T19:37:55;10.10;70.40
69626;DHT22;56847;51.984;5.088;2023-02-15T19:40:29;10.10;70.40
69626;DHT22;56847;51.984;5.088;2023-02-15T19:43:18;10.10;70.50
69626;DHT22;56847;51.984;5.088;2023-02-15T19:45:45;10.00;70.50
69626;DHT22;56847;51.984;5.088;2023-02-15T19:48:13;10.00;70.50
69626;DHT22;56847;51.984;5.088;2023-02-15T19:50:41;10.00;70.60
69626;DHT22;56847;51.984;5.088;2023-02-15T19:53:26;9.90;70.70
69626;DHT22;56847;51.984;5.088;2023-02-15T19:55:53;9.90;70.80
69626;DHT22;56847;51.984;5.088;2023-02-15T19:58:23;9.90;70.80
69626;DHT22;56847;51.984;5.088;2023-02-15T20:00:51;9.80;70.90
69626;DHT22;56847;51.984;5.088;2023-02-15T20:03:21;9.80;71.00